sensor_id;sensor_type;location;lat;lon;timestamp;pressure;altitude;pressure_sealevel;temperature;humidity
66681;BME280;53575;51.366;12.350;2022-08-30T00:01:29;100760.69;;;16.33;95.72
66681;BME280;53575;51.366;12.350;2022-08-30T00:03:55;100754.84;;;16.58;95.06
66681;BME280;53575;51.366;12.350;2022-08-30T00:06:23;100751.69;;;16.42;95.52
66681;BME280;53575;51.366;12.350;2022-08-30T00:08:49;100754.41;;;16.39;94.97
66681;BME280;53575;51.366;12.350;2022-08-30T00:11:18;100758.94;;;16.32;95.36
66681;BME280;53575;51.366;12.350;2022-08-30T00:13:46;100759.78;;;16.35;93.98
66681;BME280;53575;51.366;12.350;2022-08-30T00:16:13;100751.13;;;16.29;94.95
66681;BME280;53575;51.366;12.350;2022-08-30T00:18:39;100753.75;;;16.29;95.47
66681;BME280;53575;51.366;12.350;2022-08-30T00:21:05;100758.19;;;16.27;95.91
66681;BME280;53575;51.366;12.350;2022-08-30T00:23:32;100758.19;;;16.27;96.10
66681;BME280;53575;51.366;12.350;2022-08-30T00:25:58;100763.34;;;16.32;97.20
66681;BME280;53575;51.366;12.350;2022-08-30T00:28:23;100771.16;;;16.37;96.26
66681;BME280;53575;51.366;12.350;2022-08-30T00:30:49;100773.16;;;16.27;94.00
66681;BME280;53575;51.366;12.350;2022-08-30T00:33:15;100772.78;;;16.42;93.18
66681;BME280;53575;51.366;12.350;2022-08-30T00:35:41;100779.44;;;16.58;91.40
66681;BME280;53575;51.366;12.350;2022-08-30T00:38:08;100784.16;;;16.46;91.56
66681;BME280;53575;51.366;12.350;2022-08-30T00:40:34;100767.28;;;16.51;91.01
66681;BME280;53575;51.366;12.350;2022-08-30T00:43:03;100776.97;;;16.51;90.53
66681;BME280;53575;51.366;12.350;2022-08-30T00:45:34;100774.50;;;16.45;90.87
66681;BME280;53575;51.366;12.350;2022-08-30T00:48:00;100773.84;;;16.35;91.35
66681;BME280;53575;51.366;12.350;2022-08-30T00:50:36;100773.78;;;16.37;92.14
66681;BME280;53575;51.366;12.350;2022-08-30T00:53:06;100782.44;;;16.43;90.98
66681;BME280;53575;51.366;12.350;2022-08-30T00:55:32;100775.78;;;16.25;94.36
66681;BME280;53575;51.366;12.350;2022-08-30T00:58:01;100775.16;;;16.16;94.94
66681;BME280;53575;51.366;12.350;2022-08-30T01:00:27;100775.41;;;16.03;94.69
66681;BME280;53575;51.366;12.350;2022-08-30T01:02:53;100779.81;;;16.03;94.58
66681;BME280;53575;51.366;12.350;2022-08-30T01:05:20;100770.16;;;16.03;95.50
66681;BME280;53575;51.366;12.350;2022-08-30T01:07:45;100777.09;;;16.06;94.15
66681;BME280;53575;51.366;12.350;2022-08-30T01:10:12;100773.00;;;15.93;95.83
66681;BME280;53575;51.366;12.350;2022-08-30T01:12:40;100766.75;;;15.97;96.74
66681;BME280;53575;51.366;12.350;2022-08-30T01:15:07;100773.97;;;15.87;96.28
66681;BME280;53575;51.366;12.350;2022-08-30T01:17:33;100773.75;;;15.99;95.32
66681;BME280;53575;51.366;12.350;2022-08-30T01:20:03;100782.72;;;15.89;97.17
66681;BME280;53575;51.366;12.350;2022-08-30T01:25:06;100778.97;;;16.01;95.35
66681;BME280;53575;51.366;12.350;2022-08-30T01:27:32;100774.78;;;15.92;96.83
66681;BME280;53575;51.366;12.350;2022-08-30T01:30:00;100774.22;;;15.75;97.61
66681;BME280;53575;51.366;12.350;2022-08-30T01:32:27;100776.06;;;15.71;98.60
66681;BME280;53575;51.366;12.350;2022-08-30T01:34:56;100777.88;;;15.69;99.61
66681;BME280;53575;51.366;12.350;2022-08-30T01:37:28;100779.34;;;15.82;98.73
66681;BME280;53575;51.366;12.350;2022-08-30T01:39:54;100781.38;;;15.70;98.33
66681;BME280;53575;51.366;12.350;2022-08-30T01:42:20;100778.00;;;15.60;99.79
66681;BME280;53575;51.366;12.350;2022-08-30T01:44:46;100782.34;;;15.66;98.79
66681;BME280;53575;51.366;12.350;2022-08-30T01:47:13;100778.78;;;15.67;99.50
66681;BME280;53575;51.366;12.350;2022-08-30T01:49:39;100778.25;;;15.48;99.79
66681;BME280;53575;51.366;12.350;2022-08-30T01:52:06;100777.28;;;15.53;100.00
66681;BME280;53575;51.366;12.350;2022-08-30T01:54:34;100770.19;;;15.55;99.57
66681;BME280;53575;51.366;12.350;2022-08-30T01:57:00;100775.50;;;15.52;100.00
66681;BME280;53575;51.366;12.350;2022-08-30T01:59:26;100768.63;;;15.45;100.00
66681;BME280;53575;51.366;12.350;2022-08-30T02:01:52;100771.34;;;15.41;99.95
66681;BME280;53575;51.366;12.350;2022-08-30T02:04:17;100774.22;;;15.28;100.00
66681;BME280;53575;51.366;12.350;2022-08-30T02:06:43;100766.94;;;15.41;100.00
66681;BME280;53575;51.366;12.350;2022-08-30T02:09:09;100776.41;;;15.51;98.80
66681;BME280;53575;51.366;12.350;2022-08-30T02:11:35;100764.97;;;15.54;98.00
66681;BME280;53575;51.366;12.350;2022-08-30T02:14:01;100772.00;;;15.53;98.14
66681;BME280;53575;51.366;12.350;2022-08-30T02:16:26;100757.22;;;15.46;98.68
66681;BME280;53575;51.366;12.350;2022-08-30T02:18:53;100761.63;;;15.46;98.66
66681;BME280;53575;51.366;12.350;2022-08-30T02:21:19;100769.56;;;15.43;98.75
66681;BME280;53575;51.366;12.350;2022-08-30T02:23:45;100766.91;;;15.44;99.01
66681;BME280;53575;51.366;12.350;2022-08-30T02:26:11;100757.31;;;15.40;99.05
66681;BME280;53575;51.366;12.350;2022-08-30T02:28:37;100768.72;;;15.42;100.00
66681;BME280;53575;51.366;12.350;2022-08-30T02:31:03;100755.84;;;15.25;100.00
66681;BME280;53575;51.366;12.350;2022-08-30T02:33:29;100760.69;;;15.00;100.00
66681;BME280;53575;51.366;12.350;2022-08-30T02:35:56;100766.72;;;15.05;100.00
66681;BME280;53575;51.366;12.350;2022-08-30T02:38:22;100766.63;;;15.10;100.00
66681;BME280;53575;51.366;12.350;2022-08-30T02:40:48;100771.81;;;15.16;100.00
66681;BME280;53575;51.366;12.350;2022-08-30T02:43:14;100767.09;;;15.35;100.00
66681;BME280;53575;51.366;12.350;2022-08-30T02:45:40;100763.50;;;15.38;100.00
66681;BME280;53575;51.366;12.350;2022-08-30T02:48:05;100760.22;;;15.25;100.00
66681;BME280;53575;51.366;12.350;2022-08-30T02:50:31;100764.06;;;15.07;100.00
66681;BME280;53575;51.366;12.350;2022-08-30T02:52:56;100761.22;;;15.19;100.00
66681;BME280;53575;51.366;12.350;2022-08-30T02:55:22;100763.00;;;15.17;100.00
66681;BME280;53575;51.366;12.350;2022-08-30T02:57:48;100755.69;;;14.85;100.00
66681;BME280;53575;51.366;12.350;2022-08-30T03:00:17;100751.03;;;15.01;100.00
66681;BME280;53575;51.366;12.350;2022-08-30T03:02:43;100751.84;;;15.04;100.00
66681;BME280;53575;51.366;12.350;2022-08-30T03:05:10;100749.16;;;15.07;100.00
66681;BME280;53575;51.366;12.350;2022-08-30T03:07:37;100745.81;;;14.98;100.00
66681;BME280;53575;51.366;12.350;2022-08-30T03:10:03;100744.66;;;15.13;100.00
66681;BME280;53575;51.366;12.350;2022-08-30T03:12:29;100743.72;;;15.17;100.00
66681;BME280;53575;51.366;12.350;2022-08-30T03:14:57;100747.25;;;15.16;100.00
66681;BME280;53575;51.366;12.350;2022-08-30T03:17:22;100751.84;;;15.04;100.00
66681;BME280;53575;51.366;12.350;2022-08-30T03:19:48;100749.13;;;15.09;100.00
66681;BME280;53575;51.366;12.350;2022-08-30T03:22:13;100747.56;;;14.97;100.00
66681;BME280;53575;51.366;12.350;2022-08-30T03:24:39;100761.56;;;15.01;100.00
66681;BME280;53575;51.366;12.350;2022-08-30T03:27:04;100752.69;;;15.05;100.00
66681;BME280;53575;51.366;12.350;2022-08-30T03:29:31;100755.44;;;14.99;100.00
66681;BME280;53575;51.366;12.350;2022-08-30T03:31:57;100756.19;;;15.05;100.00
66681;BME280;53575;51.366;12.350;2022-08-30T03:34:23;100763.19;;;15.08;100.00
66681;BME280;53575;51.366;12.350;2022-08-30T03:36:50;100757.78;;;15.16;100.00
66681;BME280;53575;51.366;12.350;2022-08-30T03:39:17;100760.63;;;15.03;100.00
66681;BME280;53575;51.366;12.350;2022-08-30T03:41:42;100761.41;;;15.07;99.99
66681;BME280;53575;51.366;12.350;2022-08-30T03:44:08;100766.59;;;15.13;99.41
66681;BME280;53575;51.366;12.350;2022-08-30T03:46:33;100770.22;;;15.07;99.64
66681;BME280;53575;51.366;12.350;2022-08-30T03:48:58;100763.50;;;14.88;100.00
66681;BME280;53575;51.366;12.350;2022-08-30T03:51:24;100775.63;;;14.98;100.00
66681;BME280;53575;51.366;12.350;2022-08-30T03:53:50;100773.06;;;14.94;100.00
66681;BME280;53575;51.366;12.350;2022-08-30T03:56:16;100768.84;;;14.83;100.00
66681;BME280;53575;51.366;12.350;2022-08-30T03:58:42;100760.13;;;14.80;100.00
66681;BME280;53575;51.366;12.350;2022-08-30T04:01:07;100772.25;;;14.90;100.00
66681;BME280;53575;51.366;12.350;2022-08-30T04:03:33;100771.38;;;14.88;100.00
66681;BME280;53575;51.366;12.350;2022-08-30T04:05:59;100762.75;;;14.80;100.00
66681;BME280;53575;51.366;12.350;2022-08-30T04:08:25;100766.22;;;14.85;100.00
66681;BME280;53575;51.366;12.350;2022-08-30T04:10:51;100764.41;;;14.87;100.00
66681;BME280;53575;51.366;12.350;2022-08-30T04:13:18;100762.75;;;14.80;100.00
66681;BME280;53575;51.366;12.350;2022-08-30T04:15:44;100767.97;;;14.83;100.00
66681;BME280;53575;51.366;12.350;2022-08-30T04:18:09;100768.84;;;14.85;100.00
66681;BME280;53575;51.366;12.350;2022-08-30T04:20:35;100769.78;;;14.81;100.00
66681;BME280;53575;51.366;12.350;2022-08-30T04:23:02;100770.72;;;14.75;100.00
66681;BME280;53575;51.366;12.350;2022-08-30T04:25:27;100777.09;;;14.60;100.00
66681;BME280;53575;51.366;12.350;2022-08-30T04:27:53;100773.44;;;14.71;100.00
66681;BME280;53575;51.366;12.350;2022-08-30T04:30:19;100769.09;;;14.70;100.00
66681;BME280;53575;51.366;12.350;2022-08-30T04:32:45;100768.13;;;14.74;100.00
66681;BME280;53575;51.366;12.350;2022-08-30T04:35:11;100774.59;;;14.53;100.00
66681;BME280;53575;51.366;12.350;2022-08-30T04:37:37;100767.59;;;14.49;100.00
66681;BME280;53575;51.366;12.350;2022-08-30T04:40:04;100769.31;;;14.54;100.00
66681;BME280;53575;51.366;12.350;2022-08-30T04:42:32;100772.69;;;14.61;100.00
66681;BME280;53575;51.366;12.350;2022-08-30T04:45:05;100772.63;;;14.67;100.00
66681;BME280;53575;51.366;12.350;2022-08-30T04:47:31;100774.34;;;14.68;100.00
66681;BME280;53575;51.366;12.350;2022-08-30T04:49:57;100783.09;;;14.69;100.00
66681;BME280;53575;51.366;12.350;2022-08-30T04:52:22;100779.53;;;14.74;100.00
66681;BME280;53575;51.366;12.350;2022-08-30T04:54:56;100790.13;;;14.68;100.00
66681;BME280;53575;51.366;12.350;2022-08-30T04:57:23;100797.88;;;14.79;100.00
66681;BME280;53575;51.366;12.350;2022-08-30T04:59:49;100805.94;;;14.65;100.00
66681;BME280;53575;51.366;12.350;2022-08-30T05:02:14;100813.19;;;14.51;100.00
66681;BME280;53575;51.366;12.350;2022-08-30T05:04:40;100819.16;;;14.63;100.00
66681;BME280;53575;51.366;12.350;2022-08-30T05:07:25;100825.19;;;14.69;100.00
66681;BME280;53575;51.366;12.350;2022-08-30T05:09:50;100823.47;;;14.68;100.00
66681;BME280;53575;51.366;12.350;2022-08-30T05:12:16;100825.34;;;14.59;100.00
66681;BME280;53575;51.366;12.350;2022-08-30T05:14:41;100819.25;;;14.56;100.00
66681;BME280;53575;51.366;12.350;2022-08-30T05:17:07;100828.00;;;14.56;100.00
66681;BME280;53575;51.366;12.350;2022-08-30T05:19:32;100832.22;;;14.68;100.00
66681;BME280;53575;51.366;12.350;2022-08-30T05:21:58;100819.66;;;14.87;100.00
66681;BME280;53575;51.366;12.350;2022-08-30T05:24:24;100836.56;;;14.71;100.00
66681;BME280;53575;51.366;12.350;2022-08-30T05:26:49;100839.72;;;14.94;100.00
66681;BME280;53575;51.366;12.350;2022-08-30T05:29:14;100839.81;;;14.90;100.00
66681;BME280;53575;51.366;12.350;2022-08-30T05:31:42;100845.06;;;14.90;100.00
66681;BME280;53575;51.366;12.350;2022-08-30T05:34:11;100831.88;;;14.91;100.00
66681;BME280;53575;51.366;12.350;2022-08-30T05:36:37;100841.53;;;14.92;100.00
66681;BME280;53575;51.366;12.350;2022-08-30T05:39:05;100843.44;;;14.79;100.00
66681;BME280;53575;51.366;12.350;2022-08-30T05:41:30;100839.69;;;14.97;100.00
66681;BME280;53575;51.366;12.350;2022-08-30T05:43:58;100829.13;;;15.00;100.00
66681;BME280;53575;51.366;12.350;2022-08-30T05:46:25;100828.94;;;15.09;100.00
66681;BME280;53575;51.366;12.350;2022-08-30T05:48:54;100823.69;;;15.09;100.00
66681;BME280;53575;51.366;12.350;2022-08-30T05:51:22;100812.38;;;15.04;100.00
66681;BME280;53575;51.366;12.350;2022-08-30T05:53:50;100823.72;;;15.06;100.00
66681;BME280;53575;51.366;12.350;2022-08-30T05:56:19;100821.94;;;15.08;100.00
66681;BME280;53575;51.366;12.350;2022-08-30T05:58:45;100827.34;;;15.01;100.00
66681;BME280;53575;51.366;12.350;2022-08-30T06:01:26;100828.88;;;15.14;100.00
66681;BME280;53575;51.366;12.350;2022-08-30T06:03:53;100820.72;;;15.29;100.00
66681;BME280;53575;51.366;12.350;2022-08-30T06:06:19;100833.13;;;15.21;100.00
66681;BME280;53575;51.366;12.350;2022-08-30T06:08:45;100833.09;;;15.24;100.00
66681;BME280;53575;51.366;12.350;2022-08-30T06:11:18;100831.25;;;15.29;100.00
66681;BME280;53575;51.366;12.350;2022-08-30T06:13:44;100831.97;;;15.39;100.00
66681;BME280;53575;51.366;12.350;2022-08-30T06:16:14;100837.78;;;15.58;100.00
66681;BME280;53575;51.366;12.350;2022-08-30T06:18:39;100842.84;;;15.70;100.00
66681;BME280;53575;51.366;12.350;2022-08-30T06:21:05;100848.00;;;15.76;100.00
66681;BME280;53575;51.366;12.350;2022-08-30T06:23:31;100845.56;;;15.66;100.00
66681;BME280;53575;51.366;12.350;2022-08-30T06:26:03;100850.59;;;15.78;100.00
66681;BME280;53575;51.366;12.350;2022-08-30T06:28:29;100847.72;;;15.92;99.32
66681;BME280;53575;51.366;12.350;2022-08-30T06:30:54;100850.41;;;15.89;99.18
66681;BME280;53575;51.366;12.350;2022-08-30T06:33:19;100852.22;;;15.85;99.67
66681;BME280;53575;51.366;12.350;2022-08-30T06:35:45;100845.78;;;16.00;98.73
66681;BME280;53575;51.366;12.350;2022-08-30T06:38:10;100848.31;;;16.04;98.84
66681;BME280;53575;51.366;12.350;2022-08-30T06:40:35;100844.00;;;16.00;98.43
66681;BME280;53575;51.366;12.350;2022-08-30T06:43:01;100847.66;;;15.93;99.68
66681;BME280;53575;51.366;12.350;2022-08-30T06:45:26;100856.19;;;16.07;99.00
66681;BME280;53575;51.366;12.350;2022-08-30T06:47:52;100850.53;;;16.26;97.38
66681;BME280;53575;51.366;12.350;2022-08-30T06:50:18;100853.22;;;16.23;97.51
66681;BME280;53575;51.366;12.350;2022-08-30T06:52:44;100847.94;;;16.23;97.83
66681;BME280;53575;51.366;12.350;2022-08-30T06:55:13;100853.81;;;16.37;97.58
66681;BME280;53575;51.366;12.350;2022-08-30T06:57:39;100860.03;;;16.33;97.38
66681;BME280;53575;51.366;12.350;2022-08-30T07:00:07;100857.94;;;16.49;96.74
66681;BME280;53575;51.366;12.350;2022-08-30T07:02:35;100860.25;;;16.63;95.52
66681;BME280;53575;51.366;12.350;2022-08-30T07:05:01;100858.53;;;16.62;95.18
66681;BME280;53575;51.366;12.350;2022-08-30T07:07:27;100853.09;;;16.69;94.72
66681;BME280;53575;51.366;12.350;2022-08-30T07:09:52;100857.50;;;16.69;94.30
66681;BME280;53575;51.366;12.350;2022-08-30T07:12:19;100853.13;;;16.68;94.39
66681;BME280;53575;51.366;12.350;2022-08-30T07:14:45;100858.41;;;16.68;94.12
66681;BME280;53575;51.366;12.350;2022-08-30T07:17:11;100863.38;;;16.81;93.57
66681;BME280;53575;51.366;12.350;2022-08-30T07:19:54;100863.03;;;16.97;92.61
66681;BME280;53575;51.366;12.350;2022-08-30T07:22:20;100857.38;;;17.12;91.61
66681;BME280;53575;51.366;12.350;2022-08-30T07:24:45;100847.69;;;17.13;91.59
66681;BME280;53575;51.366;12.350;2022-08-30T07:27:11;100857.78;;;17.31;90.71
66681;BME280;53575;51.366;12.350;2022-08-30T07:29:37;100857.47;;;17.43;89.83
66681;BME280;53575;51.366;12.350;2022-08-30T07:32:03;100865.84;;;17.61;87.78
66681;BME280;53575;51.366;12.350;2022-08-30T07:34:28;100857.78;;;17.65;89.06
66681;BME280;53575;51.366;12.350;2022-08-30T07:36:54;100868.63;;;17.89;88.10
66681;BME280;53575;51.366;12.350;2022-08-30T07:39:19;100870.28;;;17.93;87.11
66681;BME280;53575;51.366;12.350;2022-08-30T07:41:45;100871.03;;;17.98;87.03
66681;BME280;53575;51.366;12.350;2022-08-30T07:44:10;100869.91;;;18.07;86.78
66681;BME280;53575;51.366;12.350;2022-08-30T07:46:37;100870.63;;;18.12;86.65
66681;BME280;53575;51.366;12.350;2022-08-30T07:49:03;100876.69;;;18.17;86.85
66681;BME280;53575;51.366;12.350;2022-08-30T07:51:29;100871.19;;;18.24;85.01
66681;BME280;53575;51.366;12.350;2022-08-30T07:53:55;100874.41;;;18.34;84.61
66681;BME280;53575;51.366;12.350;2022-08-30T07:56:21;100874.03;;;18.46;83.68
66681;BME280;53575;51.366;12.350;2022-08-30T07:58:47;100879.53;;;18.40;84.24
66681;BME280;53575;51.366;12.350;2022-08-30T08:01:13;100874.31;;;18.37;84.22
66681;BME280;53575;51.366;12.350;2022-08-30T08:03:40;100868.84;;;18.43;83.22
66681;BME280;53575;51.366;12.350;2022-08-30T08:06:08;100874.31;;;18.37;83.58
66681;BME280;53575;51.366;12.350;2022-08-30T08:08:35;100880.56;;;18.35;82.56
66681;BME280;53575;51.366;12.350;2022-08-30T08:11:24;100879.66;;;18.36;82.79
66681;BME280;53575;51.366;12.350;2022-08-30T08:13:51;100879.44;;;18.43;82.56
66681;BME280;53575;51.366;12.350;2022-08-30T08:16:17;100872.09;;;18.53;82.43
66681;BME280;53575;51.366;12.350;2022-08-30T08:18:43;100869.41;;;18.55;82.35
66681;BME280;53575;51.366;12.350;2022-08-30T08:21:08;100875.34;;;18.63;82.23
66681;BME280;53575;51.366;12.350;2022-08-30T08:23:34;100877.84;;;18.66;81.80
66681;BME280;53575;51.366;12.350;2022-08-30T08:25:59;100874.34;;;18.65;82.08
66681;BME280;53575;51.366;12.350;2022-08-30T08:28:24;100877.78;;;18.69;81.94
66681;BME280;53575;51.366;12.350;2022-08-30T08:30:50;100882.78;;;18.80;81.24
66681;BME280;53575;51.366;12.350;2022-08-30T08:33:17;100884.78;;;18.99;79.63
66681;BME280;53575;51.366;12.350;2022-08-30T08:35:43;100884.69;;;19.03;79.26
66681;BME280;53575;51.366;12.350;2022-08-30T08:38:08;100881.03;;;19.07;79.76
66681;BME280;53575;51.366;12.350;2022-08-30T08:40:45;100881.91;;;19.07;79.55
66681;BME280;53575;51.366;12.350;2022-08-30T08:43:14;100887.09;;;19.10;77.82
66681;BME280;53575;51.366;12.350;2022-08-30T08:50:41;100883.03;;;19.27;76.11
66681;BME280;53575;51.366;12.350;2022-08-30T08:53:32;100879.22;;;19.35;75.72
66681;BME280;53575;51.366;12.350;2022-08-30T08:56:04;100873.56;;;19.46;75.34
66681;BME280;53575;51.366;12.350;2022-08-30T08:58:41;100865.38;;;19.52;74.48
66681;BME280;53575;51.366;12.350;2022-08-30T09:01:08;100871.56;;;19.53;74.27
66681;BME280;53575;51.366;12.350;2022-08-30T09:03:34;100876.59;;;19.62;74.62
66681;BME280;53575;51.366;12.350;2022-08-30T09:06:03;100873.59;;;19.71;73.17
66681;BME280;53575;51.366;12.350;2022-08-30T09:08:31;100876.31;;;19.69;73.09
66681;BME280;53575;51.366;12.350;2022-08-30T09:11:05;100880.84;;;19.91;69.88
66681;BME280;53575;51.366;12.350;2022-08-30T09:13:35;100880.38;;;20.05;72.24
66681;BME280;53575;51.366;12.350;2022-08-30T09:16:00;100878.97;;;19.94;72.82
66681;BME280;53575;51.366;12.350;2022-08-30T09:18:44;100883.19;;;20.00;70.20
66681;BME280;53575;51.366;12.350;2022-08-30T09:21:10;100875.25;;;20.00;70.78
66681;BME280;53575;51.366;12.350;2022-08-30T09:23:36;100875.47;;;20.17;69.81
66681;BME280;53575;51.366;12.350;2022-08-30T09:26:11;100875.72;;;20.35;69.25
66681;BME280;53575;51.366;12.350;2022-08-30T09:28:48;100869.75;;;20.53;70.11
66681;BME280;53575;51.366;12.350;2022-08-30T09:31:23;100877.63;;;20.55;70.87
66681;BME280;53575;51.366;12.350;2022-08-30T09:34:16;100873.47;;;20.71;69.55
66681;BME280;53575;51.366;12.350;2022-08-30T09:36:48;100869.44;;;20.83;69.78
66681;BME280;53575;51.366;12.350;2022-08-30T09:41:42;100863.78;;;20.92;68.81
66681;BME280;53575;51.366;12.350;2022-08-30T09:44:26;100864.41;;;20.99;68.68
66681;BME280;53575;51.366;12.350;2022-08-30T09:49:38;100867.66;;;21.05;67.36
66681;BME280;53575;51.366;12.350;2022-08-30T09:54:40;100862.22;;;21.08;68.89
66681;BME280;53575;51.366;12.350;2022-08-30T09:57:32;100855.25;;;21.06;69.86
66681;BME280;53575;51.366;12.350;2022-08-30T10:00:14;100863.59;;;20.97;70.30
66681;BME280;53575;51.366;12.350;2022-08-30T10:02:54;100862.53;;;21.01;69.82
66681;BME280;53575;51.366;12.350;2022-08-30T10:10:58;100852.34;;;21.54;68.37
66681;BME280;53575;51.366;12.350;2022-08-30T10:16:51;100853.97;;;21.79;66.13
66681;BME280;53575;51.366;12.350;2022-08-30T10:24:44;100845.56;;;21.88;63.45
66681;BME280;53575;51.366;12.350;2022-08-30T10:27:25;100843.88;;;21.85;62.75
66681;BME280;53575;51.366;12.350;2022-08-30T10:30:00;100840.97;;;21.92;62.29
66681;BME280;53575;51.366;12.350;2022-08-30T10:32:33;100837.22;;;21.96;62.51
66681;BME280;53575;51.366;12.350;2022-08-30T10:35:06;100837.81;;;22.02;60.50
66681;BME280;53575;51.366;12.350;2022-08-30T10:37:37;100841.13;;;22.07;60.83
66681;BME280;53575;51.366;12.350;2022-08-30T10:40:14;100832.47;;;22.23;59.38
66681;BME280;53575;51.366;12.350;2022-08-30T10:43:02;100829.59;;;22.27;58.18
66681;BME280;53575;51.366;12.350;2022-08-30T10:45:33;100820.31;;;22.36;57.18
66681;BME280;53575;51.366;12.350;2022-08-30T10:48:10;100820.13;;;22.41;57.98
66681;BME280;53575;51.366;12.350;2022-08-30T10:50:44;100826.44;;;22.38;58.70
66681;BME280;53575;51.366;12.350;2022-08-30T10:53:18;100829.69;;;22.45;58.16
66681;BME280;53575;51.366;12.350;2022-08-30T10:55:59;100822.97;;;22.55;58.57
66681;BME280;53575;51.366;12.350;2022-08-30T10:58:25;100825.63;;;22.55;57.79
66681;BME280;53575;51.366;12.350;2022-08-30T11:14:59;100817.56;;;22.94;56.29
66681;BME280;53575;51.366;12.350;2022-08-30T11:17:39;100814.69;;;23.16;56.62
66681;BME280;53575;51.366;12.350;2022-08-30T11:20:22;100820.47;;;23.42;55.53
66681;BME280;53575;51.366;12.350;2022-08-30T11:23:27;100814.59;;;23.35;53.51
66681;BME280;53575;51.366;12.350;2022-08-30T11:26:09;100821.94;;;23.65;53.19
66681;BME280;53575;51.366;12.350;2022-08-30T11:31:27;100818.59;;;23.78;51.89
66681;BME280;53575;51.366;12.350;2022-08-30T11:33:54;100815.06;;;23.78;52.52
66681;BME280;53575;51.366;12.350;2022-08-30T11:41:37;100813.16;;;24.29;53.14
66681;BME280;53575;51.366;12.350;2022-08-30T11:46:39;100818.91;;;23.72;53.97
66681;BME280;53575;51.366;12.350;2022-08-30T11:51:49;100823.44;;;23.18;55.36
66681;BME280;53575;51.366;12.350;2022-08-30T12:02:45;100797.81;;;23.68;54.04
66681;BME280;53575;51.366;12.350;2022-08-30T12:08:10;100798.97;;;23.62;58.21
66681;BME280;53575;51.366;12.350;2022-08-30T12:16:08;100806.09;;;22.92;62.09
66681;BME280;53575;51.366;12.350;2022-08-30T12:21:26;100816.00;;;23.07;61.53
66681;BME280;53575;51.366;12.350;2022-08-30T12:24:30;100805.25;;;23.09;60.52
66681;BME280;53575;51.366;12.350;2022-08-30T12:27:01;100810.34;;;23.14;59.81
66681;BME280;53575;51.366;12.350;2022-08-30T12:29:54;100795.22;;;23.14;59.21
66681;BME280;53575;51.366;12.350;2022-08-30T12:32:20;100800.69;;;23.11;59.33
66681;BME280;53575;51.366;12.350;2022-08-30T12:34:57;100798.81;;;22.96;59.06
66681;BME280;53575;51.366;12.350;2022-08-30T12:37:33;100792.75;;;22.92;59.56
66681;BME280;53575;51.366;12.350;2022-08-30T12:40:29;100791.94;;;23.09;58.43
66681;BME280;53575;51.366;12.350;2022-08-30T12:43:05;100788.47;;;23.07;58.16
66681;BME280;53575;51.366;12.350;2022-08-30T12:45:43;100781.00;;;23.31;57.54
66681;BME280;53575;51.366;12.350;2022-08-30T12:48:14;100776.72;;;23.28;57.81
66681;BME280;53575;51.366;12.350;2022-08-30T12:50:48;100775.69;;;23.31;57.36
66681;BME280;53575;51.366;12.350;2022-08-30T12:53:23;100764.84;;;23.51;56.51
66681;BME280;53575;51.366;12.350;2022-08-30T12:58:51;100771.81;;;23.54;56.77
66681;BME280;53575;51.366;12.350;2022-08-30T13:01:27;100764.63;;;23.39;58.12
66681;BME280;53575;51.366;12.350;2022-08-30T13:03:57;100770.59;;;23.26;58.86
66681;BME280;53575;51.366;12.350;2022-08-30T13:06:56;100773.91;;;23.65;58.28
66681;BME280;53575;51.366;12.350;2022-08-30T13:09:31;100774.66;;;23.68;58.00
66681;BME280;53575;51.366;12.350;2022-08-30T13:11:59;100773.88;;;23.49;58.86
66681;BME280;53575;51.366;12.350;2022-08-30T13:14:40;100772.53;;;23.75;57.63
66681;BME280;53575;51.366;12.350;2022-08-30T13:17:28;100770.72;;;23.75;56.65
66681;BME280;53575;51.366;12.350;2022-08-30T13:22:41;100762.44;;;24.13;56.65
66681;BME280;53575;51.366;12.350;2022-08-30T13:25:08;100761.91;;;24.70;55.55
66681;BME280;53575;51.366;12.350;2022-08-30T13:27:36;100762.22;;;24.79;54.24
66681;BME280;53575;51.366;12.350;2022-08-30T13:30:10;100763.53;;;24.72;54.66
66681;BME280;53575;51.366;12.350;2022-08-30T13:32:36;100760.38;;;24.66;54.83
66681;BME280;53575;51.366;12.350;2022-08-30T13:35:06;100764.41;;;24.57;54.55
66681;BME280;53575;51.366;12.350;2022-08-30T13:37:32;100756.75;;;24.35;56.21
66681;BME280;53575;51.366;12.350;2022-08-30T13:39:58;100760.28;;;24.20;55.71
66681;BME280;53575;51.366;12.350;2022-08-30T13:42:24;100760.69;;;23.96;56.06
66681;BME280;53575;51.366;12.350;2022-08-30T13:44:49;100763.50;;;23.77;57.11
66681;BME280;53575;51.366;12.350;2022-08-30T13:47:16;100760.34;;;23.69;57.70
66681;BME280;53575;51.366;12.350;2022-08-30T13:49:43;100752.63;;;23.80;57.99
66681;BME280;53575;51.366;12.350;2022-08-30T13:52:20;100757.06;;;23.81;57.98
66681;BME280;53575;51.366;12.350;2022-08-30T13:54:51;100751.50;;;24.49;54.93
66681;BME280;53575;51.366;12.350;2022-08-30T13:57:20;100753.69;;;24.43;54.50
66681;BME280;53575;51.366;12.350;2022-08-30T13:59:45;100750.75;;;24.47;53.47
66681;BME280;53575;51.366;12.350;2022-08-30T14:02:11;100748.59;;;25.44;51.87
66681;BME280;53575;51.366;12.350;2022-08-30T14:04:36;100747.75;;;26.01;49.71
66681;BME280;53575;51.366;12.350;2022-08-30T14:07:02;100748.78;;;25.70;49.93
66681;BME280;53575;51.366;12.350;2022-08-30T14:09:27;100750.34;;;25.88;49.29